createdAt,value
2018-05-29T00:00:47.200Z,99719.80
2018-05-29T00:03:14.810Z,99715.83
2018-05-29T00:05:42.461Z,99717.22
2018-05-29T00:08:10.044Z,99720.02
2018-05-29T00:10:37.625Z,99715.55
2018-05-29T00:13:05.248Z,99719.70
2018-05-29T00:15:32.844Z,99714.53
2018-05-29T00:18:00.712Z,99718.13
2018-05-29T00:20:28.344Z,99711.13
2018-05-29T00:22:55.998Z,99707.23
2018-05-29T00:25:24.165Z,99712.64
2018-05-29T00:27:51.730Z,99708.72
2018-05-29T00:30:19.314Z,99692.23
2018-05-29T00:32:46.949Z,99700.53
2018-05-29T00:35:14.600Z,99699.71
2018-05-29T00:37:42.198Z,99699.39
2018-05-29T00:40:09.779Z,99698.59
2018-05-29T00:42:38.268Z,99696.93
2018-05-29T00:45:05.892Z,99691.25
2018-05-29T00:47:33.538Z,99697.25
2018-05-29T00:50:01.160Z,99693.88
2018-05-29T00:52:28.758Z,99692.06
2018-05-29T00:55:07.951Z,99691.05
2018-05-29T00:57:35.537Z,99691.83
2018-05-29T01:00:03.153Z,99693.66
2018-05-29T01:02:30.722Z,99693.80
2018-05-29T01:04:58.862Z,99696.11
2018-05-29T01:07:27.335Z,99692.31
2018-05-29T01:09:54.930Z,99692.03
2018-05-29T01:12:22.522Z,99692.25
2018-05-29T01:14:50.106Z,99693.36
2018-05-29T01:17:17.678Z,99693.20
2018-05-29T01:19:45.259Z,99694.84
2018-05-29T01:22:12.866Z,99691.56
2018-05-29T01:24:41.064Z,99684.22
2018-05-29T01:27:08.623Z,99682.61
2018-05-29T01:29:36.184Z,99682.83
2018-05-29T01:32:03.792Z,99687.89
2018-05-29T01:34:32.091Z,99684.14
2018-05-29T01:36:59.638Z,99682.19
2018-05-29T01:39:27.285Z,99684.28
2018-05-29T01:41:54.867Z,99682.80
2018-05-29T01:44:22.439Z,99676.82
2018-05-29T01:46:50.628Z,99675.53
2018-05-29T01:49:18.215Z,99672.94
2018-05-29T01:51:45.797Z,99673.58
2018-05-29T01:54:13.422Z,99677.80
2018-05-29T01:56:41.869Z,99673.00
2018-05-29T01:59:09.413Z,99664.28
2018-05-29T02:01:37.051Z,99657.17
2018-05-29T02:04:04.629Z,99649.41
2018-05-29T02:06:32.360Z,99656.56
2018-05-29T02:08:59.897Z,99652.34
2018-05-29T02:11:27.509Z,99653.02
2018-05-29T02:13:55.077Z,99647.64
2018-05-29T02:16:22.670Z,99601.34
2018-05-29T02:18:50.225Z,99644.42
2018-05-29T02:21:17.794Z,99644.51
2018-05-29T02:23:45.339Z,99636.58
2018-05-29T02:26:12.927Z,99636.16
2018-05-29T02:28:40.477Z,99638.04
2018-05-29T02:31:08.052Z,99634.55
2018-05-29T02:33:35.673Z,99632.95
2018-05-29T02:36:03.253Z,99637.59
2018-05-29T02:38:30.827Z,99634.59
2018-05-29T02:40:58.413Z,99640.61
2018-05-29T02:43:26.019Z,99646.70
2018-05-29T02:45:53.573Z,99646.08
2018-05-29T02:48:21.177Z,99644.53
2018-05-29T02:50:48.715Z,99634.77
2018-05-29T02:53:16.357Z,99634.09
2018-05-29T02:55:44.556Z,99636.02
2018-05-29T02:58:12.128Z,99629.30
2018-05-29T03:00:39.722Z,99636.89
2018-05-29T03:03:07.307Z,99634.72
2018-05-29T03:05:34.855Z,99625.00
2018-05-29T03:08:02.463Z,99627.70
2018-05-29T03:10:30.028Z,99630.92
2018-05-29T03:12:57.655Z,99629.29
2018-05-29T03:15:25.230Z,99625.38
2018-05-29T03:17:52.798Z,99624.99
2018-05-29T03:20:20.429Z,99627.28
2018-05-29T03:22:47.956Z,99632.20
2018-05-29T03:25:16.655Z,99630.00
2018-05-29T03:27:44.237Z,99623.86
2018-05-29T03:30:11.857Z,99623.98
2018-05-29T03:32:39.454Z,99620.23
2018-05-29T03:35:07.039Z,99621.27
2018-05-29T03:37:34.575Z,99618.76
2018-05-29T03:40:02.953Z,99623.61
2018-05-29T03:42:30.494Z,99624.09
2018-05-29T03:44:58.733Z,99625.44
2018-05-29T03:47:26.340Z,99626.34
2018-05-29T03:49:53.947Z,99621.42
2018-05-29T03:52:21.530Z,99625.44
2018-05-29T03:54:50.424Z,99622.77
2018-05-29T03:57:18.000Z,99623.61
2018-05-29T03:59:45.557Z,99625.86
2018-05-29T04:02:13.213Z,99626.66
2018-05-29T04:04:40.784Z,99617.27
2018-05-29T04:07:08.348Z,99618.98
2018-05-29T04:09:35.921Z,99622.94
2018-05-29T04:12:04.345Z,99617.52
2018-05-29T04:14:31.968Z,99613.42
2018-05-29T04:16:59.650Z,99621.81
2018-05-29T04:19:27.176Z,99615.60
2018-05-29T04:21:54.745Z,99623.95
2018-05-29T04:24:22.316Z,99616.69
2018-05-29T04:26:50.158Z,99613.98
2018-05-29T04:29:18.903Z,99619.66
2018-05-29T04:31:46.455Z,99621.78
2018-05-29T04:34:14.640Z,99623.83
2018-05-29T04:36:42.204Z,99625.75
2018-05-29T04:39:09.788Z,99627.70
2018-05-29T04:41:37.350Z,99626.25
2018-05-29T04:44:04.977Z,99627.88
2018-05-29T04:46:32.559Z,99630.93
2018-05-29T04:49:00.123Z,99638.27
2018-05-29T04:51:27.686Z,99637.27
2018-05-29T04:53:55.258Z,99634.47
2018-05-29T04:56:22.831Z,99631.78
2018-05-29T04:58:50.395Z,99637.81
2018-05-29T05:01:17.992Z,99637.97
2018-05-29T05:03:45.564Z,99634.78
2018-05-29T05:06:13.655Z,99640.74
2018-05-29T05:08:41.283Z,99633.54
2018-05-29T05:11:08.850Z,99633.25
2018-05-29T05:13:36.516Z,99633.10
2018-05-29T05:16:04.168Z,99632.70
2018-05-29T05:18:32.611Z,99635.59
2018-05-29T05:21:00.206Z,99623.61
2018-05-29T05:23:27.752Z,99628.02
2018-05-29T05:25:55.313Z,99627.55
2018-05-29T05:28:22.861Z,99632.77
2018-05-29T05:30:50.651Z,99619.14
2018-05-29T05:33:18.293Z,99634.73
2018-05-29T05:35:45.850Z,99627.72
2018-05-29T05:38:13.442Z,99633.39
2018-05-29T05:40:41.080Z,99641.72
2018-05-29T05:43:08.670Z,99651.35
2018-05-29T05:45:36.293Z,99648.84
2018-05-29T05:48:03.952Z,99643.39
2018-05-29T05:50:31.577Z,99646.62
2018-05-29T05:53:00.096Z,99652.78
2018-05-29T05:55:27.688Z,99654.78
2018-05-29T05:57:55.350Z,99650.97
2018-05-29T06:00:22.955Z,99644.63
2018-05-29T06:02:50.658Z,99634.48
2018-05-29T06:05:18.251Z,99636.98
2018-05-29T06:07:45.845Z,99645.13
2018-05-29T06:10:14.291Z,99650.19
2018-05-29T06:12:41.840Z,99644.34
2018-05-29T06:15:09.955Z,99644.58
2018-05-29T06:17:37.513Z,99637.76
2018-05-29T06:20:05.095Z,99634.91
2018-05-29T06:22:32.671Z,99635.03
2018-05-29T06:25:00.216Z,99626.91
2018-05-29T06:27:28.613Z,99636.21
2018-05-29T06:29:57.506Z,99630.00
2018-05-29T06:32:25.127Z,99632.61
2018-05-29T06:34:52.743Z,99625.78
2018-05-29T06:37:20.329Z,99627.07
2018-05-29T06:39:48.008Z,99620.95
2018-05-29T06:42:15.600Z,99615.81
2018-05-29T06:44:43.203Z,99620.20
2018-05-29T06:47:10.781Z,99614.84
2018-05-29T06:49:38.490Z,99623.39
2018-05-29T06:52:06.166Z,99610.88
2018-05-29T06:54:33.744Z,99613.81
2018-05-29T06:57:01.375Z,99615.64
2018-05-29T06:59:28.981Z,99609.18
2018-05-29T07:01:56.583Z,99601.78
2018-05-29T07:04:24.482Z,99605.25
2018-05-29T07:06:52.808Z,99605.76
2018-05-29T07:09:29.220Z,99607.04
2018-05-29T07:11:56.825Z,99602.28
2018-05-29T07:14:25.329Z,99608.64
2018-05-29T07:16:52.982Z,99600.53
2018-05-29T07:19:20.621Z,99601.12
2018-05-29T07:21:48.233Z,99599.20
2018-05-29T07:24:15.900Z,99603.30
2018-05-29T07:26:43.480Z,99593.20
2018-05-29T07:29:11.032Z,99595.59
2018-05-29T07:31:38.604Z,99597.71
2018-05-29T07:34:06.160Z,99591.08
2018-05-29T07:36:33.743Z,99588.20
2018-05-29T07:39:01.797Z,99589.91
2018-05-29T07:41:29.409Z,99590.13
2018-05-29T07:43:56.956Z,99582.42
2018-05-29T07:46:24.702Z,99579.14
2018-05-29T07:48:52.285Z,99585.81
2018-05-29T07:51:19.917Z,99578.92
2018-05-29T07:53:47.506Z,99581.31
2018-05-29T07:56:15.110Z,99572.45
2018-05-29T07:58:42.713Z,99570.12
2018-05-29T08:01:10.276Z,99565.40
2018-05-29T08:03:37.835Z,99565.53
2018-05-29T08:06:05.410Z,99565.41
2018-05-29T08:08:35.936Z,99537.98
2018-05-29T08:11:03.528Z,99562.77
2018-05-29T08:13:31.185Z,99557.53
2018-05-29T08:15:58.791Z,99560.20
2018-05-29T08:18:26.478Z,99564.16
2018-05-29T08:20:54.061Z,99561.63
2018-05-29T08:23:21.804Z,99558.03
2018-05-29T08:25:50.556Z,99561.09
2018-05-29T08:28:18.125Z,99557.42
2018-05-29T08:30:45.666Z,99558.14
2018-05-29T08:33:13.268Z,99550.36
2018-05-29T08:35:40.793Z,99551.65
2018-05-29T08:38:08.375Z,99548.47
2018-05-29T08:40:38.908Z,99548.30
2018-05-29T08:43:06.572Z,99554.89
2018-05-29T08:45:34.229Z,99542.09
2018-05-29T08:48:01.821Z,99539.80
2018-05-29T08:50:29.375Z,99530.68
2018-05-29T08:52:56.944Z,99534.53
2018-05-29T08:55:24.512Z,99533.02
2018-05-29T08:57:53.043Z,99527.86
2018-05-29T09:00:21.646Z,99525.91
2018-05-29T09:02:49.225Z,99531.17
2018-05-29T09:05:16.807Z,99521.69
2018-05-29T09:07:44.371Z,99526.20
2018-05-29T09:10:11.938Z,99517.53
2018-05-29T09:12:39.500Z,99518.98
2018-05-29T09:15:07.082Z,99516.17
2018-05-29T09:17:34.696Z,99508.42
2018-05-29T09:20:02.343Z,99512.88
2018-05-29T09:22:29.881Z,99501.45
2018-05-29T09:24:57.448Z,99498.17
2018-05-29T09:27:25.033Z,99495.94
2018-05-29T09:29:52.664Z,99495.34
2018-05-29T09:32:20.175Z,99493.83
2018-05-29T09:34:48.349Z,99497.98
2018-05-29T09:37:15.909Z,99496.47
2018-05-29T09:39:43.506Z,99496.31
2018-05-29T09:42:11.076Z,99489.97
2018-05-29T09:44:38.688Z,99489.91
2018-05-29T09:47:06.252Z,99492.73
2018-05-29T09:49:33.805Z,99484.81
2018-05-29T09:52:01.343Z,99484.49
2018-05-29T09:54:28.954Z,99482.70
2018-05-29T09:56:56.479Z,99487.80
2018-05-29T09:59:24.044Z,99484.45
2018-05-29T10:01:51.614Z,99477.30
2018-05-29T10:04:19.269Z,99468.09
2018-05-29T10:06:46.815Z,99462.45
2018-05-29T10:09:14.530Z,99458.27
2018-05-29T10:11:42.140Z,99457.77
2018-05-29T10:14:09.696Z,99453.61
2018-05-29T10:16:37.233Z,99456.11
2018-05-29T10:19:04.819Z,99456.50
2018-05-29T10:21:32.387Z,99449.89
2018-05-29T10:23:59.952Z,99446.28
2018-05-29T10:26:27.507Z,99440.83
2018-05-29T10:28:55.150Z,99434.20
2018-05-29T10:31:22.764Z,99436.59
2018-05-29T10:33:50.378Z,99440.92
2018-05-29T10:36:18.594Z,99435.28
2018-05-29T10:38:46.186Z,99432.69
2018-05-29T10:41:13.892Z,99435.28
2018-05-29T10:43:41.460Z,99432.14
2018-05-29T10:46:09.138Z,99435.48
2018-05-29T10:48:36.620Z,99439.66
2018-05-29T10:51:04.221Z,99439.05
2018-05-29T10:53:31.827Z,99431.24
2018-05-29T10:55:59.442Z,99431.11
2018-05-29T10:58:27.018Z,99431.78
2018-05-29T11:00:54.634Z,99426.78
2018-05-29T11:03:22.220Z,99423.84
2018-05-29T11:05:49.796Z,99426.41
2018-05-29T11:08:17.362Z,99425.05
2018-05-29T11:10:44.925Z,99420.77
2018-05-29T11:13:12.818Z,99419.25
2018-05-29T11:15:41.116Z,99421.09
2018-05-29T11:18:08.736Z,99414.78
2018-05-29T11:20:36.342Z,99412.19
2018-05-29T11:23:03.929Z,99418.02
2018-05-29T11:25:31.522Z,99421.44
2018-05-29T11:27:59.070Z,99420.98
2018-05-29T11:30:26.712Z,99415.50
2018-05-29T11:32:54.330Z,99392.32
2018-05-29T11:35:21.900Z,99402.22
2018-05-29T11:37:49.517Z,99402.62
2018-05-29T11:40:17.177Z,99396.38
2018-05-29T11:42:44.704Z,99395.31
2018-05-29T11:45:13.095Z,99395.49
2018-05-29T11:47:40.658Z,99395.71
2018-05-29T11:50:08.296Z,99385.91
2018-05-29T11:52:36.804Z,99380.67
2018-05-29T11:55:04.400Z,99377.00
2018-05-29T11:57:32.593Z,99373.81
2018-05-29T12:00:00.806Z,99360.41
2018-05-29T12:02:28.400Z,99350.81
2018-05-29T12:04:55.952Z,99350.05
2018-05-29T12:07:23.556Z,99347.27
2018-05-29T12:09:51.148Z,99338.64
2018-05-29T12:12:24.708Z,99336.87
2018-05-29T12:14:52.286Z,99344.05
2018-05-29T12:17:19.888Z,99335.97
2018-05-29T12:19:48.681Z,99329.70
2018-05-29T12:22:16.280Z,99322.00
2018-05-29T12:24:43.911Z,99322.89
2018-05-29T12:27:12.225Z,99319.03
2018-05-29T12:29:39.875Z,99314.97
2018-05-29T12:32:07.544Z,99305.48
2018-05-29T12:34:35.148Z,99305.58
2018-05-29T12:37:02.727Z,99307.95
2018-05-29T12:39:30.323Z,99310.34
2018-05-29T12:42:00.240Z,99311.24
2018-05-29T12:44:27.800Z,99320.13
2018-05-29T12:46:55.396Z,99319.34
2018-05-29T12:49:23.229Z,99316.20
2018-05-29T12:51:50.854Z,99320.51
2018-05-29T12:54:18.448Z,99317.56
2018-05-29T12:56:47.221Z,99316.41
2018-05-29T12:59:14.812Z,99312.80
2018-05-29T13:01:42.467Z,99317.59
2018-05-29T13:04:10.056Z,99316.95
2018-05-29T13:06:37.657Z,99321.42
2018-05-29T13:09:06.066Z,99313.75
2018-05-29T13:11:34.416Z,99308.30
2018-05-29T13:14:02.015Z,99295.52
2018-05-29T13:16:29.595Z,99289.69
2018-05-29T13:18:57.164Z,99290.38
2018-05-29T13:21:24.758Z,99290.22
2018-05-29T13:23:52.336Z,99308.36
2018-05-29T13:26:19.953Z,99333.97
2018-05-29T13:28:47.594Z,99347.25
2018-05-29T13:31:15.987Z,99376.45
2018-05-29T13:33:43.602Z,99388.02
2018-05-29T13:36:11.206Z,99391.43
2018-05-29T13:38:40.301Z,99407.46
2018-05-29T13:41:07.865Z,99446.08
2018-05-29T13:43:35.481Z,99408.56
2018-05-29T13:46:04.057Z,99400.72
2018-05-29T13:48:31.933Z,99414.89
2018-05-29T13:51:01.227Z,99459.06
2018-05-29T13:53:28.961Z,99438.45
2018-05-29T13:55:56.604Z,99463.31
2018-05-29T13:58:24.185Z,99552.11
2018-05-29T14:00:54.342Z,99592.77
2018-05-29T14:03:21.911Z,99615.72
2018-05-29T14:05:53.479Z,99660.47
2018-05-29T14:08:21.299Z,99632.36
2018-05-29T14:10:49.882Z,99644.78
2018-05-29T14:13:18.002Z,99590.31
2018-05-29T14:15:45.638Z,99575.41
2018-05-29T14:18:13.642Z,99573.67
2018-05-29T14:20:41.260Z,99536.13
2018-05-29T14:23:08.947Z,99490.98
2018-05-29T14:25:36.521Z,99477.95
2018-05-29T14:28:04.140Z,99457.28
2018-05-29T14:30:31.712Z,99451.05
2018-05-29T14:32:59.292Z,99442.20
2018-05-29T14:35:26.852Z,99448.23
2018-05-29T14:37:54.455Z,99435.48
2018-05-29T14:40:21.979Z,99428.44
2018-05-29T14:42:49.543Z,99410.42
2018-05-29T14:45:24.898Z,99409.61
2018-05-29T14:47:52.499Z,99407.95
2018-05-29T14:53:12.406Z,99430.32
2018-05-29T14:55:40.015Z,99441.95
2018-05-29T14:58:12.237Z,99465.24
2018-05-29T15:00:46.764Z,99462.09
2018-05-29T15:03:14.596Z,99461.00
2018-05-29T15:05:44.124Z,99464.98
2018-05-29T15:08:12.525Z,99482.17
2018-05-29T15:10:41.918Z,99478.95
2018-05-29T15:13:15.724Z,99453.97
2018-05-29T15:15:47.870Z,99443.41
2018-05-29T15:18:25.985Z,99478.05
2018-05-29T15:20:54.798Z,99494.03
2018-05-29T15:23:24.722Z,99500.58
2018-05-29T15:25:58.217Z,99511.17
2018-05-29T15:28:28.188Z,99528.89
2018-05-29T15:30:56.870Z,99547.92
2018-05-29T15:33:26.794Z,99538.19
2018-05-29T15:35:56.907Z,99536.03
2018-05-29T15:38:25.059Z,99535.23
2018-05-29T15:40:55.912Z,99527.88
2018-05-29T15:43:23.919Z,99519.50
2018-05-29T15:45:51.747Z,99498.75
2018-05-29T15:48:19.723Z,99500.69
2018-05-29T15:50:47.594Z,99496.80
2018-05-29T15:53:15.971Z,99497.09
2018-05-29T15:55:45.414Z,99488.78
2018-05-29T15:58:15.144Z,99478.30
2018-05-29T16:00:43.025Z,99471.44
2018-05-29T16:03:10.710Z,99461.94
2018-05-29T16:05:38.878Z,99449.98
2018-05-29T16:08:06.643Z,99455.50
2018-05-29T16:10:34.532Z,99459.13
2018-05-29T16:13:02.625Z,99454.30
2018-05-29T16:15:31.579Z,99455.51
2018-05-29T16:17:59.486Z,99454.17
2018-05-29T16:20:28.605Z,99453.97
2018-05-29T16:25:31.009Z,99458.23
2018-05-29T16:27:58.872Z,99445.84
2018-05-29T16:30:27.775Z,99436.21
2018-05-29T16:32:56.366Z,99445.86
2018-05-29T16:35:26.381Z,99442.44
2018-05-29T16:37:55.363Z,99437.01
2018-05-29T16:40:24.106Z,99439.91
2018-05-29T16:42:54.113Z,99445.95
2018-05-29T16:45:23.952Z,99433.15
2018-05-29T16:47:54.156Z,99413.76
2018-05-29T16:50:24.155Z,99403.98
2018-05-29T16:53:09.389Z,99385.25
2018-05-29T16:55:38.780Z,99380.42
2018-05-29T16:58:11.457Z,99369.80
2018-05-29T17:00:39.873Z,99348.52
2018-05-29T17:03:09.110Z,99347.95
2018-05-29T17:05:50.049Z,99344.58
2018-05-29T17:08:18.121Z,99345.22
2018-05-29T17:10:49.661Z,99345.83
2018-05-29T17:13:18.719Z,99356.86
2018-05-29T17:15:54.575Z,99351.58
2018-05-29T17:18:22.387Z,99352.34
2018-05-29T17:20:50.361Z,99365.72
2018-05-29T17:23:19.064Z,99365.86
2018-05-29T17:25:47.014Z,99373.61
2018-05-29T17:31:17.954Z,99383.20
2018-05-29T17:33:46.794Z,99391.85
2018-05-29T17:36:16.043Z,99385.58
2018-05-29T17:38:44.431Z,99377.26
2018-05-29T17:41:16.285Z,99381.75
2018-05-29T17:43:45.155Z,99380.94
2018-05-29T17:46:14.489Z,99376.20
2018-05-29T17:48:42.253Z,99372.38
2018-05-29T17:51:10.018Z,99358.85
2018-05-29T17:53:37.828Z,99357.84
2018-05-29T17:56:05.574Z,99350.79
2018-05-29T17:58:33.320Z,99353.87
2018-05-29T18:01:01.027Z,99359.72
2018-05-29T18:03:28.689Z,99364.66
2018-05-29T18:05:56.595Z,99355.52
2018-05-29T18:08:24.560Z,99380.48
2018-05-29T18:10:53.098Z,99392.32
2018-05-29T18:13:20.858Z,99407.88
2018-05-29T18:15:48.589Z,99413.23
2018-05-29T18:18:18.195Z,99421.83
2018-05-29T18:20:45.788Z,99438.86
2018-05-29T18:23:13.370Z,99443.92
2018-05-29T18:25:40.957Z,99449.27
2018-05-29T18:28:08.539Z,99463.51
2018-05-29T18:30:36.163Z,99469.57
2018-05-29T18:33:03.709Z,99469.23
2018-05-29T18:35:31.301Z,99475.45
2018-05-29T18:37:59.475Z,99486.51
2018-05-29T18:40:27.154Z,99484.22
2018-05-29T18:42:54.720Z,99542.88
2018-05-29T18:45:22.335Z,99491.64
2018-05-29T18:47:49.940Z,99501.33
2018-05-29T18:50:17.565Z,99511.09
2018-05-29T18:52:45.143Z,99506.01
2018-05-29T18:55:12.746Z,99508.02
2018-05-29T18:57:40.341Z,99511.27
2018-05-29T19:00:07.911Z,99523.45
2018-05-29T19:02:35.533Z,99526.95
2018-05-29T19:05:03.971Z,99538.02
2018-05-29T19:07:31.538Z,99548.52
2018-05-29T19:10:02.928Z,99546.72
2018-05-29T19:12:30.536Z,99543.17
2018-05-29T19:14:58.156Z,99541.20
2018-05-29T19:17:25.767Z,99537.33
2018-05-29T19:19:53.375Z,99546.82
2018-05-29T19:22:20.988Z,99548.23
2018-05-29T19:24:48.542Z,99550.37
2018-05-29T19:27:16.108Z,99551.04
2018-05-29T19:29:43.651Z,99553.59
2018-05-29T19:32:11.230Z,99554.30
2018-05-29T19:34:38.919Z,99563.81
2018-05-29T19:37:06.513Z,99569.53
2018-05-29T19:39:34.143Z,99563.39
2018-05-29T19:42:01.768Z,99562.77
2018-05-29T19:44:29.333Z,99561.52
2018-05-29T19:46:56.931Z,99574.06
2018-05-29T19:49:24.557Z,99569.63
2018-05-29T19:51:55.005Z,99570.55
2018-05-29T19:54:31.143Z,99573.86
2018-05-29T19:57:03.350Z,99573.31
2018-05-29T19:59:58.053Z,99577.11
2018-05-29T20:02:26.046Z,99568.64
2018-05-29T20:04:53.640Z,99567.69
2018-05-29T20:07:21.241Z,99571.87
2018-05-29T20:09:49.097Z,99570.71
2018-05-29T20:12:16.730Z,99563.87
2018-05-29T20:14:44.284Z,99570.92
2018-05-29T20:17:11.917Z,99562.70
2018-05-29T20:19:40.141Z,99561.81
2018-05-29T20:22:08.267Z,99552.47
2018-05-29T20:24:35.850Z,99548.58
2018-05-29T20:27:03.451Z,99548.58
2018-05-29T20:29:32.832Z,99539.17
2018-05-29T20:32:00.787Z,99534.08
2018-05-29T20:34:28.796Z,99538.27
2018-05-29T20:36:56.425Z,99534.89
2018-05-29T20:39:25.262Z,99523.50
2018-05-29T20:41:53.900Z,99523.30
2018-05-29T20:44:22.137Z,99516.53
2018-05-29T20:46:49.863Z,99521.48
2018-05-29T20:49:17.781Z,99511.28
2018-05-29T20:51:45.671Z,99507.41
2018-05-29T20:54:13.252Z,99506.62
2018-05-29T20:56:40.874Z,99507.28
2018-05-29T20:59:08.457Z,99505.95
2018-05-29T21:01:36.066Z,99503.28
2018-05-29T21:04:03.693Z,99510.41
2018-05-29T21:06:31.344Z,99508.11
2018-05-29T21:08:58.923Z,99507.57
2018-05-29T21:11:26.574Z,99509.78
2018-05-29T21:13:54.176Z,99511.12
2018-05-29T21:16:21.777Z,99506.28
2018-05-29T21:18:50.347Z,99503.20
2018-05-29T21:21:17.939Z,99510.73
2018-05-29T21:23:46.154Z,99511.78
2018-05-29T21:26:13.770Z,99520.16
2018-05-29T21:28:42.988Z,99528.01
2018-05-29T21:31:10.600Z,99529.30
2018-05-29T21:33:38.202Z,99534.93
2018-05-29T21:36:05.799Z,99529.02
2018-05-29T21:38:34.555Z,99537.77
2018-05-29T21:41:02.150Z,99534.59
2018-05-29T21:43:29.762Z,99536.77
2018-05-29T21:45:57.376Z,99532.92
2018-05-29T21:48:24.957Z,99538.35
2018-05-29T21:50:52.548Z,99540.80
2018-05-29T21:53:20.184Z,99549.48
2018-05-29T21:55:47.774Z,99557.28
2018-05-29T21:58:15.537Z,99556.52
2018-05-29T22:00:44.940Z,99552.84
2018-05-29T22:03:12.524Z,99557.42
2018-05-29T22:05:40.148Z,99552.00
2018-05-29T22:08:07.788Z,99549.41
2018-05-29T22:10:35.413Z,99548.81
2018-05-29T22:13:03.083Z,99543.42
2018-05-29T22:15:30.829Z,99542.71
2018-05-29T22:17:58.483Z,99538.66
2018-05-29T22:20:26.113Z,99539.06
2018-05-29T22:22:53.711Z,99534.00
2018-05-29T22:25:21.362Z,99532.11
2018-05-29T22:27:49.001Z,99529.80
2018-05-29T22:30:16.708Z,99525.09
2018-05-29T22:32:44.775Z,99528.75
2018-05-29T22:35:12.529Z,99529.70
2018-05-29T22:37:40.249Z,99530.23
2018-05-29T22:40:07.885Z,99530.28
2018-05-29T22:42:35.498Z,99537.36
2018-05-29T22:45:03.248Z,99533.94
2018-05-29T22:47:30.870Z,99541.02
2018-05-29T22:49:58.474Z,99541.98
2018-05-29T22:52:26.056Z,99540.64
2018-05-29T22:54:55.591Z,99542.97
2018-05-29T22:57:23.752Z,99557.20
2018-05-29T22:59:51.879Z,99553.78
2018-05-29T23:02:19.475Z,99562.23
2018-05-29T23:04:47.062Z,99563.61
2018-05-29T23:07:15.447Z,99561.40
2018-05-29T23:09:43.021Z,99564.10
2018-05-29T23:15:00.927Z,99567.88
2018-05-29T23:17:28.543Z,99575.03
2018-05-29T23:19:56.448Z,99584.78
2018-05-29T23:22:24.036Z,99588.32
2018-05-29T23:24:51.628Z,99587.94
2018-05-29T23:27:19.240Z,99590.11
2018-05-29T23:29:46.769Z,99595.06
2018-05-29T23:32:14.347Z,99594.69
2018-05-29T23:34:41.876Z,99591.25
2018-05-29T23:37:09.416Z,99594.19
2018-05-29T23:39:36.965Z,99602.48
2018-05-29T23:42:04.518Z,99604.69
2018-05-29T23:44:32.128Z,99609.06
2018-05-29T23:46:59.703Z,99613.28
2018-05-29T23:49:27.259Z,99612.53
2018-05-29T23:51:54.781Z,99609.97
2018-05-29T23:54:22.341Z,99609.73
2018-05-29T23:56:49.972Z,99609.19
2018-05-29T23:59:17.567Z,99606.28
